createdAt,value
2023-03-06T00:23:29.226Z,3
2023-03-06T00:33:29.236Z,3
2023-03-06T00:43:30.259Z,2.9
2023-03-06T00:53:31.006Z,2.9
2023-03-06T01:03:31.952Z,2.9
2023-03-06T01:33:32.328Z,2.8
2023-03-06T01:43:32.964Z,2.8
2023-03-06T02:03:34.528Z,2.9
2023-03-06T02:33:36.069Z,2.7
2023-03-06T03:03:38.129Z,2.6
2023-03-06T03:13:38.999Z,2.6
2023-03-06T04:13:42.883Z,2.6
2023-03-06T04:23:43.891Z,2.5
2023-03-06T04:33:44.744Z,2.5
2023-03-06T04:43:44.878Z,2.4
2023-03-06T04:53:45.521Z,2.4
2023-03-06T05:13:46.114Z,2.1
2023-03-06T05:23:46.821Z,2.2
2023-03-06T05:33:47.240Z,2.1
2023-03-06T05:53:49.154Z,2.1
2023-03-06T06:23:51.240Z,2.2
2023-03-06T06:33:52.290Z,2.2
2023-03-06T06:43:52.959Z,2.3
2023-03-06T06:53:53.671Z,2.4
2023-03-06T07:03:54.198Z,2.3
2023-03-06T07:13:54.968Z,2.4
2023-03-06T07:23:55.351Z,2.3
2023-03-06T07:43:56.670Z,2.4
2023-03-06T07:53:57.356Z,2.4
2023-03-06T08:03:57.843Z,2.5
2023-03-06T08:13:58.615Z,2.5
2023-03-06T08:23:59.286Z,2.6
2023-03-06T08:33:59.967Z,2.6
2023-03-06T08:54:01.737Z,2.7
2023-03-06T09:04:02.448Z,2.5
2023-03-06T09:14:02.611Z,2.6
2023-03-06T09:24:06.046Z,2.5
2023-03-06T09:34:04.212Z,2.6
2023-03-06T09:44:04.941Z,2.6
2023-03-06T09:54:04.899Z,2.5
2023-03-06T10:14:05.396Z,2.7
2023-03-06T10:24:06.348Z,2.7
2023-03-06T10:34:06.671Z,2.9
2023-03-06T10:44:07.005Z,3
2023-03-06T10:54:07.113Z,3
2023-03-06T11:04:07.585Z,3.1
2023-03-06T11:14:07.862Z,3.3
2023-03-06T11:34:09.071Z,3.5
2023-03-06T11:44:09.421Z,3.7
2023-03-06T11:54:10.021Z,4
2023-03-06T12:04:10.212Z,4.4
2023-03-06T12:14:11.132Z,5
2023-03-06T12:44:13.009Z,5.1
2023-03-06T13:24:15.253Z,4.9
2023-03-06T13:26:53.685Z,4.9
2023-03-06T13:54:25.372Z,5.5
2023-03-06T14:04:26.290Z,5.3
2023-03-06T14:14:27.037Z,5
2023-03-06T14:34:27.312Z,5.5
2023-03-06T14:44:27.687Z,5.9
2023-03-06T14:54:28.581Z,6.2
2023-03-06T15:04:29.517Z,6.5
2023-03-06T15:34:31.101Z,6.3
2023-03-06T15:44:31.767Z,6.2
2023-03-06T15:54:33.040Z,6
2023-03-06T16:04:33.034Z,6
2023-03-06T16:14:33.825Z,5.9
2023-03-06T16:34:34.331Z,4.2
2023-03-06T16:44:34.786Z,4
2023-03-06T16:54:35.092Z,3.8
2023-03-06T17:14:35.262Z,4
2023-03-06T17:24:35.589Z,4.1
2023-03-06T17:34:36.154Z,4.2
2023-03-06T17:44:36.330Z,4.1
2023-03-06T17:54:37.415Z,4.1
2023-03-06T18:04:37.832Z,4
2023-03-06T18:14:38.426Z,3.9
2023-03-06T18:24:38.977Z,3.9
2023-03-06T18:44:40.645Z,3.7
2023-03-06T18:54:40.940Z,3.7
2023-03-06T19:04:40.965Z,3.7
2023-03-06T19:24:41.939Z,3.8
2023-03-06T19:34:42.431Z,3.8
2023-03-06T19:44:42.773Z,3.7
2023-03-06T20:04:43.970Z,3.6
2023-03-06T20:14:44.284Z,3.6
2023-03-06T20:34:45.382Z,3.5
2023-03-06T20:54:46.556Z,3.5
2023-03-06T21:04:47.235Z,3.5
2023-03-06T21:24:47.829Z,3.3
2023-03-06T21:44:48.768Z,2.9
2023-03-06T21:54:49.588Z,2.8
2023-03-06T22:04:49.928Z,2.7
2023-03-06T22:14:50.551Z,2.5
2023-03-06T22:24:51.205Z,2.4
2023-03-06T22:34:51.529Z,2.2
2023-03-06T22:44:51.682Z,2.2
2023-03-06T23:24:53.356Z,2.3
2023-03-06T23:34:54.204Z,2.3
2023-03-06T23:44:55.138Z,2.4
2023-03-06T23:54:55.545Z,2.5
